sensor_id;sensor_type;location;lat;lon;timestamp;P1;durP1;ratioP1;P2;durP2;ratioP2
72882;SDS011;61017;37.812;-122.286;2023-05-24T00:01:20;22.70;;;6.28;;
72882;SDS011;61017;37.812;-122.286;2023-05-24T00:02:52;19.30;;;5.90;;
72882;SDS011;61017;37.812;-122.286;2023-05-24T00:04:23;23.75;;;6.88;;
72882;SDS011;61017;37.812;-122.286;2023-05-24T00:05:55;20.38;;;6.18;;
72882;SDS011;61017;37.812;-122.286;2023-05-24T00:07:26;21.30;;;6.05;;
72882;SDS011;61017;37.812;-122.286;2023-05-24T00:08:58;21.13;;;6.32;;
72882;SDS011;61017;37.812;-122.286;2023-05-24T00:10:30;21.33;;;6.30;;
72882;SDS011;61017;37.812;-122.286;2023-05-24T00:12:01;20.08;;;6.30;;
72882;SDS011;61017;37.812;-122.286;2023-05-24T00:13:33;23.27;;;6.35;;
72882;SDS011;61017;37.812;-122.286;2023-05-24T00:15:05;21.50;;;6.55;;
72882;SDS011;61017;37.812;-122.286;2023-05-24T00:16:37;23.70;;;6.43;;
72882;SDS011;61017;37.812;-122.286;2023-05-24T00:18:12;22.65;;;6.38;;
72882;SDS011;61017;37.812;-122.286;2023-05-24T00:19:46;21.40;;;6.78;;
72882;SDS011;61017;37.812;-122.286;2023-05-24T00:21:23;22.42;;;6.22;;
72882;SDS011;61017;37.812;-122.286;2023-05-24T00:22:55;19.98;;;6.05;;
72882;SDS011;61017;37.812;-122.286;2023-05-24T00:24:26;23.95;;;6.95;;
72882;SDS011;61017;37.812;-122.286;2023-05-24T00:25:58;24.92;;;6.40;;
72882;SDS011;61017;37.812;-122.286;2023-05-24T00:27:30;22.15;;;6.70;;
72882;SDS011;61017;37.812;-122.286;2023-05-24T00:29:01;26.48;;;6.35;;
72882;SDS011;61017;37.812;-122.286;2023-05-24T00:30:33;21.35;;;6.45;;
72882;SDS011;61017;37.812;-122.286;2023-05-24T00:32:05;21.70;;;6.43;;
72882;SDS011;61017;37.812;-122.286;2023-05-24T00:33:36;24.00;;;7.03;;
72882;SDS011;61017;37.812;-122.286;2023-05-24T00:35:08;22.10;;;6.30;;
72882;SDS011;61017;37.812;-122.286;2023-05-24T00:36:40;24.25;;;6.38;;
72882;SDS011;61017;37.812;-122.286;2023-05-24T00:38:12;20.98;;;6.47;;
72882;SDS011;61017;37.812;-122.286;2023-05-24T00:39:47;25.27;;;7.05;;
72882;SDS011;61017;37.812;-122.286;2023-05-24T00:41:18;23.45;;;6.85;;
72882;SDS011;61017;37.812;-122.286;2023-05-24T00:42:53;22.83;;;6.50;;
72882;SDS011;61017;37.812;-122.286;2023-05-24T00:44:24;25.30;;;6.57;;
72882;SDS011;61017;37.812;-122.286;2023-05-24T00:47:46;24.73;;;6.80;;
72882;SDS011;61017;37.812;-122.286;2023-05-24T00:49:18;22.75;;;6.18;;
72882;SDS011;61017;37.812;-122.286;2023-05-24T00:50:49;24.48;;;6.35;;
72882;SDS011;61017;37.812;-122.286;2023-05-24T00:52:21;25.65;;;7.10;;
72882;SDS011;61017;37.812;-122.286;2023-05-24T00:53:53;25.83;;;7.22;;
72882;SDS011;61017;37.812;-122.286;2023-05-24T00:55:25;24.35;;;6.95;;
72882;SDS011;61017;37.812;-122.286;2023-05-24T00:56:57;23.85;;;6.80;;
72882;SDS011;61017;37.812;-122.286;2023-05-24T00:58:29;23.92;;;6.88;;
72882;SDS011;61017;37.812;-122.286;2023-05-24T01:00:02;28.75;;;6.93;;
72882;SDS011;61017;37.812;-122.286;2023-05-24T01:01:35;28.00;;;7.38;;
72882;SDS011;61017;37.812;-122.286;2023-05-24T01:03:07;26.27;;;7.25;;
72882;SDS011;61017;37.812;-122.286;2023-05-24T01:04:38;26.00;;;6.95;;
72882;SDS011;61017;37.812;-122.286;2023-05-24T01:06:12;27.33;;;6.85;;
72882;SDS011;61017;37.812;-122.286;2023-05-24T01:11:22;25.58;;;7.07;;
72882;SDS011;61017;37.812;-122.286;2023-05-24T01:15:19;28.60;;;7.20;;
72882;SDS011;61017;37.812;-122.286;2023-05-24T01:16:55;24.70;;;6.85;;
72882;SDS011;61017;37.812;-122.286;2023-05-24T01:18:34;28.73;;;7.10;;
72882;SDS011;61017;37.812;-122.286;2023-05-24T01:20:10;24.95;;;7.10;;
72882;SDS011;61017;37.812;-122.286;2023-05-24T01:21:58;27.75;;;7.03;;
72882;SDS011;61017;37.812;-122.286;2023-05-24T01:25:40;28.27;;;6.90;;
72882;SDS011;61017;37.812;-122.286;2023-05-24T01:27:27;27.40;;;7.13;;
72882;SDS011;61017;37.812;-122.286;2023-05-24T01:29:03;26.77;;;6.72;;
72882;SDS011;61017;37.812;-122.286;2023-05-24T01:30:35;27.30;;;7.63;;
72882;SDS011;61017;37.812;-122.286;2023-05-24T01:32:09;26.00;;;7.38;;
72882;SDS011;61017;37.812;-122.286;2023-05-24T01:33:42;26.40;;;7.18;;
72882;SDS011;61017;37.812;-122.286;2023-05-24T01:35:14;27.92;;;8.05;;
72882;SDS011;61017;37.812;-122.286;2023-05-24T01:36:48;25.52;;;6.97;;
72882;SDS011;61017;37.812;-122.286;2023-05-24T01:38:19;24.70;;;6.68;;
72882;SDS011;61017;37.812;-122.286;2023-05-24T01:39:51;24.30;;;6.88;;
72882;SDS011;61017;37.812;-122.286;2023-05-24T01:41:31;26.20;;;7.25;;
72882;SDS011;61017;37.812;-122.286;2023-05-24T01:44:46;29.83;;;7.22;;
72882;SDS011;61017;37.812;-122.286;2023-05-24T01:49:43;32.38;;;7.97;;
72882;SDS011;61017;37.812;-122.286;2023-05-24T01:51:21;25.80;;;7.57;;
72882;SDS011;61017;37.812;-122.286;2023-05-24T01:52:57;26.20;;;7.60;;
72882;SDS011;61017;37.812;-122.286;2023-05-24T01:54:36;26.85;;;7.70;;
72882;SDS011;61017;37.812;-122.286;2023-05-24T01:56:13;31.08;;;7.50;;
72882;SDS011;61017;37.812;-122.286;2023-05-24T01:57:47;26.60;;;7.68;;
72882;SDS011;61017;37.812;-122.286;2023-05-24T01:59:21;27.90;;;7.53;;
72882;SDS011;61017;37.812;-122.286;2023-05-24T02:00:55;28.13;;;7.68;;
72882;SDS011;61017;37.812;-122.286;2023-05-24T02:02:27;28.67;;;7.97;;
72882;SDS011;61017;37.812;-122.286;2023-05-24T02:03:59;31.55;;;8.10;;
72882;SDS011;61017;37.812;-122.286;2023-05-24T02:05:31;31.05;;;8.63;;
72882;SDS011;61017;37.812;-122.286;2023-05-24T02:07:03;28.13;;;7.57;;
72882;SDS011;61017;37.812;-122.286;2023-05-24T02:10:07;31.65;;;7.93;;
72882;SDS011;61017;37.812;-122.286;2023-05-24T02:11:40;29.67;;;7.53;;
72882;SDS011;61017;37.812;-122.286;2023-05-24T02:13:11;29.05;;;7.45;;
72882;SDS011;61017;37.812;-122.286;2023-05-24T02:14:43;31.90;;;8.07;;
72882;SDS011;61017;37.812;-122.286;2023-05-24T02:16:14;29.83;;;7.63;;
72882;SDS011;61017;37.812;-122.286;2023-05-24T02:17:46;28.90;;;7.90;;
72882;SDS011;61017;37.812;-122.286;2023-05-24T02:19:18;25.60;;;7.60;;
72882;SDS011;61017;37.812;-122.286;2023-05-24T02:20:49;29.92;;;7.68;;
72882;SDS011;61017;37.812;-122.286;2023-05-24T02:22:21;27.15;;;7.93;;
72882;SDS011;61017;37.812;-122.286;2023-05-24T02:23:52;28.35;;;8.32;;
72882;SDS011;61017;37.812;-122.286;2023-05-24T02:25:24;27.42;;;7.43;;
72882;SDS011;61017;37.812;-122.286;2023-05-24T02:26:55;28.98;;;7.68;;
72882;SDS011;61017;37.812;-122.286;2023-05-24T02:28:27;28.00;;;7.40;;
72882;SDS011;61017;37.812;-122.286;2023-05-24T02:29:58;30.45;;;7.60;;
72882;SDS011;61017;37.812;-122.286;2023-05-24T02:31:30;29.38;;;7.68;;
72882;SDS011;61017;37.812;-122.286;2023-05-24T02:33:02;30.00;;;7.47;;
72882;SDS011;61017;37.812;-122.286;2023-05-24T02:34:33;26.92;;;7.80;;
72882;SDS011;61017;37.812;-122.286;2023-05-24T02:36:05;28.40;;;7.95;;
72882;SDS011;61017;37.812;-122.286;2023-05-24T02:37:36;26.30;;;7.70;;
72882;SDS011;61017;37.812;-122.286;2023-05-24T02:39:08;26.17;;;7.30;;
72882;SDS011;61017;37.812;-122.286;2023-05-24T02:40:40;29.35;;;7.53;;
72882;SDS011;61017;37.812;-122.286;2023-05-24T02:42:11;27.67;;;7.55;;
72882;SDS011;61017;37.812;-122.286;2023-05-24T02:43:46;23.98;;;7.20;;
72882;SDS011;61017;37.812;-122.286;2023-05-24T02:45:18;27.63;;;7.35;;
72882;SDS011;61017;37.812;-122.286;2023-05-24T02:46:49;24.50;;;7.40;;
72882;SDS011;61017;37.812;-122.286;2023-05-24T02:48:21;27.52;;;7.97;;
72882;SDS011;61017;37.812;-122.286;2023-05-24T02:49:53;27.20;;;7.47;;
72882;SDS011;61017;37.812;-122.286;2023-05-24T02:51:25;26.00;;;7.10;;
72882;SDS011;61017;37.812;-122.286;2023-05-24T02:52:57;26.35;;;7.60;;
72882;SDS011;61017;37.812;-122.286;2023-05-24T02:54:28;27.10;;;7.18;;
72882;SDS011;61017;37.812;-122.286;2023-05-24T02:56:02;28.25;;;7.85;;
72882;SDS011;61017;37.812;-122.286;2023-05-24T02:57:34;26.35;;;7.20;;
72882;SDS011;61017;37.812;-122.286;2023-05-24T02:59:05;29.15;;;7.72;;
72882;SDS011;61017;37.812;-122.286;2023-05-24T03:00:37;29.58;;;8.15;;
72882;SDS011;61017;37.812;-122.286;2023-05-24T03:02:08;28.92;;;7.35;;
72882;SDS011;61017;37.812;-122.286;2023-05-24T03:03:40;26.02;;;7.50;;
72882;SDS011;61017;37.812;-122.286;2023-05-24T03:05:12;32.50;;;7.60;;
72882;SDS011;61017;37.812;-122.286;2023-05-24T03:06:43;29.10;;;7.32;;
72882;SDS011;61017;37.812;-122.286;2023-05-24T03:08:15;28.95;;;7.63;;
72882;SDS011;61017;37.812;-122.286;2023-05-24T03:09:46;33.85;;;7.50;;
72882;SDS011;61017;37.812;-122.286;2023-05-24T03:11:18;26.17;;;7.85;;
72882;SDS011;61017;37.812;-122.286;2023-05-24T03:12:49;33.03;;;7.85;;
72882;SDS011;61017;37.812;-122.286;2023-05-24T03:14:21;25.15;;;7.45;;
72882;SDS011;61017;37.812;-122.286;2023-05-24T03:15:52;30.55;;;7.97;;
72882;SDS011;61017;37.812;-122.286;2023-05-24T03:17:24;28.67;;;7.63;;
72882;SDS011;61017;37.812;-122.286;2023-05-24T03:18:56;28.48;;;7.55;;
72882;SDS011;61017;37.812;-122.286;2023-05-24T03:20:27;25.40;;;7.75;;
72882;SDS011;61017;37.812;-122.286;2023-05-24T03:21:59;27.85;;;7.35;;
72882;SDS011;61017;37.812;-122.286;2023-05-24T03:23:30;30.92;;;8.30;;
72882;SDS011;61017;37.812;-122.286;2023-05-24T03:25:02;25.35;;;7.90;;
72882;SDS011;61017;37.812;-122.286;2023-05-24T03:26:34;28.67;;;7.70;;
72882;SDS011;61017;37.812;-122.286;2023-05-24T03:28:06;27.75;;;8.02;;
72882;SDS011;61017;37.812;-122.286;2023-05-24T03:29:37;29.45;;;7.63;;
72882;SDS011;61017;37.812;-122.286;2023-05-24T03:31:09;27.92;;;7.82;;
72882;SDS011;61017;37.812;-122.286;2023-05-24T03:32:44;30.98;;;7.93;;
72882;SDS011;61017;37.812;-122.286;2023-05-24T03:34:15;27.65;;;7.78;;
72882;SDS011;61017;37.812;-122.286;2023-05-24T03:35:47;26.85;;;7.25;;
72882;SDS011;61017;37.812;-122.286;2023-05-24T03:37:19;26.38;;;7.75;;
72882;SDS011;61017;37.812;-122.286;2023-05-24T03:38:50;26.98;;;7.00;;
72882;SDS011;61017;37.812;-122.286;2023-05-24T03:40:22;28.13;;;7.65;;
72882;SDS011;61017;37.812;-122.286;2023-05-24T03:41:53;29.20;;;7.88;;
72882;SDS011;61017;37.812;-122.286;2023-05-24T03:43:28;31.20;;;8.32;;
72882;SDS011;61017;37.812;-122.286;2023-05-24T03:45:00;33.40;;;7.82;;
72882;SDS011;61017;37.812;-122.286;2023-05-24T03:46:31;32.97;;;7.60;;
72882;SDS011;61017;37.812;-122.286;2023-05-24T03:48:03;34.47;;;8.90;;
72882;SDS011;61017;37.812;-122.286;2023-05-24T03:49:35;26.65;;;8.02;;
72882;SDS011;61017;37.812;-122.286;2023-05-24T03:51:06;30.42;;;7.35;;
72882;SDS011;61017;37.812;-122.286;2023-05-24T03:52:38;27.77;;;8.23;;
72882;SDS011;61017;37.812;-122.286;2023-05-24T03:54:09;29.92;;;7.65;;
72882;SDS011;61017;37.812;-122.286;2023-05-24T03:55:41;30.77;;;7.63;;
72882;SDS011;61017;37.812;-122.286;2023-05-24T03:57:13;26.50;;;8.20;;
72882;SDS011;61017;37.812;-122.286;2023-05-24T03:58:44;30.23;;;7.85;;
72882;SDS011;61017;37.812;-122.286;2023-05-24T04:00:16;30.05;;;8.02;;
72882;SDS011;61017;37.812;-122.286;2023-05-24T04:01:48;30.33;;;8.07;;
72882;SDS011;61017;37.812;-122.286;2023-05-24T04:03:19;43.58;;;8.38;;
72882;SDS011;61017;37.812;-122.286;2023-05-24T04:04:51;36.85;;;8.70;;
72882;SDS011;61017;37.812;-122.286;2023-05-24T04:06:23;41.63;;;8.18;;
72882;SDS011;61017;37.812;-122.286;2023-05-24T04:07:55;42.65;;;8.93;;
72882;SDS011;61017;37.812;-122.286;2023-05-24T04:09:27;42.70;;;8.80;;
72882;SDS011;61017;37.812;-122.286;2023-05-24T04:10:59;43.47;;;9.05;;
72882;SDS011;61017;37.812;-122.286;2023-05-24T04:12:30;44.50;;;9.02;;
72882;SDS011;61017;37.812;-122.286;2023-05-24T04:14:02;40.40;;;8.80;;
72882;SDS011;61017;37.812;-122.286;2023-05-24T04:15:33;43.80;;;8.98;;
72882;SDS011;61017;37.812;-122.286;2023-05-24T04:17:05;42.90;;;7.88;;
72882;SDS011;61017;37.812;-122.286;2023-05-24T04:18:37;45.65;;;9.23;;
72882;SDS011;61017;37.812;-122.286;2023-05-24T04:20:09;37.78;;;8.68;;
72882;SDS011;61017;37.812;-122.286;2023-05-24T04:21:41;46.33;;;9.88;;
72882;SDS011;61017;37.812;-122.286;2023-05-24T04:23:12;44.65;;;9.57;;
72882;SDS011;61017;37.812;-122.286;2023-05-24T04:24:44;41.35;;;9.13;;
72882;SDS011;61017;37.812;-122.286;2023-05-24T04:26:16;39.20;;;8.77;;
72882;SDS011;61017;37.812;-122.286;2023-05-24T04:27:48;40.22;;;8.32;;
72882;SDS011;61017;37.812;-122.286;2023-05-24T04:29:19;41.03;;;8.85;;
72882;SDS011;61017;37.812;-122.286;2023-05-24T04:30:51;41.60;;;9.10;;
72882;SDS011;61017;37.812;-122.286;2023-05-24T04:32:22;49.53;;;9.07;;
72882;SDS011;61017;37.812;-122.286;2023-05-24T04:33:55;37.55;;;9.13;;
72882;SDS011;61017;37.812;-122.286;2023-05-24T04:35:26;44.47;;;8.27;;
72882;SDS011;61017;37.812;-122.286;2023-05-24T04:36:58;37.40;;;8.65;;
72882;SDS011;61017;37.812;-122.286;2023-05-24T04:38:30;44.67;;;8.90;;
72882;SDS011;61017;37.812;-122.286;2023-05-24T04:40:04;33.75;;;8.25;;
72882;SDS011;61017;37.812;-122.286;2023-05-24T04:43:08;34.65;;;8.40;;
72882;SDS011;61017;37.812;-122.286;2023-05-24T04:44:40;37.65;;;9.18;;
72882;SDS011;61017;37.812;-122.286;2023-05-24T04:46:12;38.83;;;8.53;;
72882;SDS011;61017;37.812;-122.286;2023-05-24T04:47:43;36.45;;;8.60;;
72882;SDS011;61017;37.812;-122.286;2023-05-24T04:49:15;44.35;;;9.43;;
72882;SDS011;61017;37.812;-122.286;2023-05-24T04:50:46;35.05;;;8.48;;
72882;SDS011;61017;37.812;-122.286;2023-05-24T04:52:18;39.60;;;9.07;;
72882;SDS011;61017;37.812;-122.286;2023-05-24T04:53:49;37.70;;;8.77;;
72882;SDS011;61017;37.812;-122.286;2023-05-24T04:55:21;38.55;;;8.68;;
72882;SDS011;61017;37.812;-122.286;2023-05-24T04:56:53;43.38;;;9.35;;
72882;SDS011;61017;37.812;-122.286;2023-05-24T04:58:24;42.15;;;8.65;;
72882;SDS011;61017;37.812;-122.286;2023-05-24T04:59:56;38.00;;;8.57;;
72882;SDS011;61017;37.812;-122.286;2023-05-24T05:01:27;37.63;;;9.02;;
72882;SDS011;61017;37.812;-122.286;2023-05-24T05:02:59;34.50;;;8.05;;
72882;SDS011;61017;37.812;-122.286;2023-05-24T05:04:31;31.10;;;7.75;;
72882;SDS011;61017;37.812;-122.286;2023-05-24T05:06:02;32.92;;;8.27;;
72882;SDS011;61017;37.812;-122.286;2023-05-24T05:07:35;32.22;;;8.63;;
72882;SDS011;61017;37.812;-122.286;2023-05-24T05:09:07;34.88;;;8.55;;
72882;SDS011;61017;37.812;-122.286;2023-05-24T05:10:38;31.95;;;8.65;;
72882;SDS011;61017;37.812;-122.286;2023-05-24T05:12:10;33.90;;;8.02;;
72882;SDS011;61017;37.812;-122.286;2023-05-24T05:13:42;37.88;;;8.75;;
72882;SDS011;61017;37.812;-122.286;2023-05-24T05:15:13;32.13;;;8.25;;
72882;SDS011;61017;37.812;-122.286;2023-05-24T05:16:45;31.75;;;8.27;;
72882;SDS011;61017;37.812;-122.286;2023-05-24T05:18:16;37.50;;;8.75;;
72882;SDS011;61017;37.812;-122.286;2023-05-24T05:19:48;37.63;;;8.15;;
72882;SDS011;61017;37.812;-122.286;2023-05-24T05:21:20;34.13;;;8.40;;
72882;SDS011;61017;37.812;-122.286;2023-05-24T05:22:51;34.92;;;8.05;;
72882;SDS011;61017;37.812;-122.286;2023-05-24T05:24:23;39.67;;;8.48;;
72882;SDS011;61017;37.812;-122.286;2023-05-24T05:25:54;35.40;;;8.50;;
72882;SDS011;61017;37.812;-122.286;2023-05-24T05:27:28;30.38;;;8.23;;
72882;SDS011;61017;37.812;-122.286;2023-05-24T05:28:59;32.00;;;8.25;;
72882;SDS011;61017;37.812;-122.286;2023-05-24T05:30:31;32.95;;;8.43;;
72882;SDS011;61017;37.812;-122.286;2023-05-24T05:32:03;31.42;;;8.95;;
72882;SDS011;61017;37.812;-122.286;2023-05-24T05:33:34;34.65;;;9.05;;
72882;SDS011;61017;37.812;-122.286;2023-05-24T05:35:07;33.03;;;8.52;;
72882;SDS011;61017;37.812;-122.286;2023-05-24T05:36:40;36.03;;;8.68;;
72882;SDS011;61017;37.812;-122.286;2023-05-24T05:38:11;31.00;;;8.50;;
72882;SDS011;61017;37.812;-122.286;2023-05-24T05:39:43;39.80;;;9.32;;
72882;SDS011;61017;37.812;-122.286;2023-05-24T05:41:14;36.97;;;8.05;;
72882;SDS011;61017;37.812;-122.286;2023-05-24T05:42:46;36.30;;;8.38;;
72882;SDS011;61017;37.812;-122.286;2023-05-24T05:44:18;33.58;;;8.10;;
72882;SDS011;61017;37.812;-122.286;2023-05-24T05:45:50;38.00;;;9.00;;
72882;SDS011;61017;37.812;-122.286;2023-05-24T05:47:21;28.92;;;8.35;;
72882;SDS011;61017;37.812;-122.286;2023-05-24T05:48:53;35.80;;;8.40;;
72882;SDS011;61017;37.812;-122.286;2023-05-24T05:50:24;34.10;;;8.15;;
72882;SDS011;61017;37.812;-122.286;2023-05-24T05:51:56;38.03;;;8.77;;
72882;SDS011;61017;37.812;-122.286;2023-05-24T05:53:27;32.80;;;8.82;;
72882;SDS011;61017;37.812;-122.286;2023-05-24T05:54:59;32.80;;;8.15;;
72882;SDS011;61017;37.812;-122.286;2023-05-24T05:56:31;36.97;;;8.10;;
72882;SDS011;61017;37.812;-122.286;2023-05-24T05:58:02;31.70;;;8.45;;
72882;SDS011;61017;37.812;-122.286;2023-05-24T05:59:34;36.92;;;8.90;;
72882;SDS011;61017;37.812;-122.286;2023-05-24T06:01:08;33.65;;;8.65;;
72882;SDS011;61017;37.812;-122.286;2023-05-24T06:02:40;32.90;;;8.20;;
72882;SDS011;61017;37.812;-122.286;2023-05-24T06:04:11;31.08;;;8.18;;
72882;SDS011;61017;37.812;-122.286;2023-05-24T06:05:43;31.80;;;8.77;;
72882;SDS011;61017;37.812;-122.286;2023-05-24T06:07:15;30.77;;;8.23;;
72882;SDS011;61017;37.812;-122.286;2023-05-24T06:08:46;34.35;;;9.15;;
72882;SDS011;61017;37.812;-122.286;2023-05-24T06:10:18;33.67;;;8.43;;
72882;SDS011;61017;37.812;-122.286;2023-05-24T06:11:49;33.13;;;8.10;;
72882;SDS011;61017;37.812;-122.286;2023-05-24T06:13:24;34.22;;;8.35;;
72882;SDS011;61017;37.812;-122.286;2023-05-24T06:14:55;33.22;;;8.25;;
72882;SDS011;61017;37.812;-122.286;2023-05-24T06:16:27;32.92;;;8.57;;
72882;SDS011;61017;37.812;-122.286;2023-05-24T06:17:59;31.13;;;8.10;;
72882;SDS011;61017;37.812;-122.286;2023-05-24T06:19:31;34.60;;;9.20;;
72882;SDS011;61017;37.812;-122.286;2023-05-24T06:21:02;35.60;;;8.50;;
72882;SDS011;61017;37.812;-122.286;2023-05-24T06:22:34;33.03;;;8.18;;
72882;SDS011;61017;37.812;-122.286;2023-05-24T06:24:05;35.05;;;8.88;;
72882;SDS011;61017;37.812;-122.286;2023-05-24T06:25:37;32.10;;;8.18;;
72882;SDS011;61017;37.812;-122.286;2023-05-24T06:27:09;31.88;;;7.97;;
72882;SDS011;61017;37.812;-122.286;2023-05-24T06:28:40;36.13;;;8.85;;
72882;SDS011;61017;37.812;-122.286;2023-05-24T06:30:12;33.20;;;9.05;;
72882;SDS011;61017;37.812;-122.286;2023-05-24T06:31:44;39.92;;;9.00;;
72882;SDS011;61017;37.812;-122.286;2023-05-24T06:33:15;31.63;;;8.20;;
72882;SDS011;61017;37.812;-122.286;2023-05-24T06:34:47;39.75;;;8.75;;
72882;SDS011;61017;37.812;-122.286;2023-05-24T06:36:18;38.35;;;8.57;;
72882;SDS011;61017;37.812;-122.286;2023-05-24T06:37:50;32.15;;;8.77;;
72882;SDS011;61017;37.812;-122.286;2023-05-24T06:39:22;35.92;;;8.63;;
72882;SDS011;61017;37.812;-122.286;2023-05-24T06:40:53;30.70;;;8.77;;
72882;SDS011;61017;37.812;-122.286;2023-05-24T06:42:25;32.70;;;8.00;;
72882;SDS011;61017;37.812;-122.286;2023-05-24T06:43:56;36.22;;;8.68;;
72882;SDS011;61017;37.812;-122.286;2023-05-24T06:45:28;37.47;;;8.35;;
72882;SDS011;61017;37.812;-122.286;2023-05-24T06:47:00;34.92;;;8.20;;
72882;SDS011;61017;37.812;-122.286;2023-05-24T06:48:31;34.35;;;7.95;;
72882;SDS011;61017;37.812;-122.286;2023-05-24T06:50:03;32.45;;;7.93;;
72882;SDS011;61017;37.812;-122.286;2023-05-24T06:51:35;39.85;;;9.15;;
72882;SDS011;61017;37.812;-122.286;2023-05-24T06:53:07;35.38;;;8.20;;
72882;SDS011;61017;37.812;-122.286;2023-05-24T06:54:39;37.63;;;8.30;;
72882;SDS011;61017;37.812;-122.286;2023-05-24T06:56:10;40.95;;;8.60;;
72882;SDS011;61017;37.812;-122.286;2023-05-24T06:57:42;32.67;;;8.70;;
72882;SDS011;61017;37.812;-122.286;2023-05-24T06:59:14;32.80;;;8.00;;
72882;SDS011;61017;37.812;-122.286;2023-05-24T07:00:46;29.40;;;7.55;;
72882;SDS011;61017;37.812;-122.286;2023-05-24T07:02:17;34.05;;;7.47;;
72882;SDS011;61017;37.812;-122.286;2023-05-24T07:03:49;34.42;;;8.27;;
72882;SDS011;61017;37.812;-122.286;2023-05-24T07:05:21;31.20;;;8.07;;
72882;SDS011;61017;37.812;-122.286;2023-05-24T07:06:52;35.67;;;8.35;;
72882;SDS011;61017;37.812;-122.286;2023-05-24T07:08:24;35.85;;;8.57;;
72882;SDS011;61017;37.812;-122.286;2023-05-24T07:09:56;34.73;;;8.20;;
72882;SDS011;61017;37.812;-122.286;2023-05-24T07:11:27;34.17;;;8.23;;
72882;SDS011;61017;37.812;-122.286;2023-05-24T07:13:00;38.43;;;8.73;;
72882;SDS011;61017;37.812;-122.286;2023-05-24T07:14:31;35.97;;;8.63;;
72882;SDS011;61017;37.812;-122.286;2023-05-24T07:16:03;37.40;;;8.23;;
72882;SDS011;61017;37.812;-122.286;2023-05-24T07:17:35;39.63;;;8.68;;
72882;SDS011;61017;37.812;-122.286;2023-05-24T07:19:10;34.50;;;7.90;;
72882;SDS011;61017;37.812;-122.286;2023-05-24T07:20:42;34.50;;;8.15;;
72882;SDS011;61017;37.812;-122.286;2023-05-24T07:22:13;31.77;;;7.97;;
72882;SDS011;61017;37.812;-122.286;2023-05-24T07:23:45;33.10;;;8.70;;
72882;SDS011;61017;37.812;-122.286;2023-05-24T07:25:17;30.95;;;8.15;;
72882;SDS011;61017;37.812;-122.286;2023-05-24T07:26:49;31.77;;;7.78;;
72882;SDS011;61017;37.812;-122.286;2023-05-24T07:28:21;34.70;;;8.48;;
72882;SDS011;61017;37.812;-122.286;2023-05-24T07:29:52;33.30;;;7.80;;
72882;SDS011;61017;37.812;-122.286;2023-05-24T07:31:24;31.92;;;8.57;;
72882;SDS011;61017;37.812;-122.286;2023-05-24T07:32:55;31.45;;;8.20;;
72882;SDS011;61017;37.812;-122.286;2023-05-24T07:34:27;28.38;;;7.70;;
72882;SDS011;61017;37.812;-122.286;2023-05-24T07:35:58;34.85;;;7.90;;
72882;SDS011;61017;37.812;-122.286;2023-05-24T07:37:30;35.55;;;8.13;;
72882;SDS011;61017;37.812;-122.286;2023-05-24T07:39:02;36.72;;;8.95;;
72882;SDS011;61017;37.812;-122.286;2023-05-24T07:40:33;33.20;;;7.70;;
72882;SDS011;61017;37.812;-122.286;2023-05-24T07:42:05;32.35;;;8.05;;
72882;SDS011;61017;37.812;-122.286;2023-05-24T07:43:37;34.35;;;7.82;;
72882;SDS011;61017;37.812;-122.286;2023-05-24T07:45:09;35.92;;;8.13;;
72882;SDS011;61017;37.812;-122.286;2023-05-24T07:46:41;31.65;;;8.07;;
72882;SDS011;61017;37.812;-122.286;2023-05-24T07:48:13;34.55;;;8.27;;
72882;SDS011;61017;37.812;-122.286;2023-05-24T07:49:44;36.50;;;7.95;;
72882;SDS011;61017;37.812;-122.286;2023-05-24T07:51:16;33.22;;;8.35;;
72882;SDS011;61017;37.812;-122.286;2023-05-24T07:52:47;32.22;;;7.80;;
72882;SDS011;61017;37.812;-122.286;2023-05-24T07:54:19;32.10;;;8.05;;
72882;SDS011;61017;37.812;-122.286;2023-05-24T07:55:51;28.88;;;8.45;;
72882;SDS011;61017;37.812;-122.286;2023-05-24T07:57:22;34.30;;;7.43;;
72882;SDS011;61017;37.812;-122.286;2023-05-24T07:58:54;34.15;;;8.10;;
72882;SDS011;61017;37.812;-122.286;2023-05-24T08:00:25;31.83;;;8.15;;
72882;SDS011;61017;37.812;-122.286;2023-05-24T08:01:57;37.47;;;8.02;;
72882;SDS011;61017;37.812;-122.286;2023-05-24T08:03:29;33.95;;;8.18;;
72882;SDS011;61017;37.812;-122.286;2023-05-24T08:05:01;30.73;;;7.55;;
72882;SDS011;61017;37.812;-122.286;2023-05-24T08:06:33;33.92;;;8.23;;
72882;SDS011;61017;37.812;-122.286;2023-05-24T08:08:04;32.10;;;8.10;;
72882;SDS011;61017;37.812;-122.286;2023-05-24T08:09:36;32.55;;;8.30;;
72882;SDS011;61017;37.812;-122.286;2023-05-24T08:11:07;33.60;;;7.60;;
72882;SDS011;61017;37.812;-122.286;2023-05-24T08:12:39;30.17;;;7.65;;
72882;SDS011;61017;37.812;-122.286;2023-05-24T08:14:11;33.95;;;8.38;;
72882;SDS011;61017;37.812;-122.286;2023-05-24T08:15:42;33.60;;;8.23;;
72882;SDS011;61017;37.812;-122.286;2023-05-24T08:17:14;28.33;;;7.20;;
72882;SDS011;61017;37.812;-122.286;2023-05-24T08:18:46;30.27;;;7.65;;
72882;SDS011;61017;37.812;-122.286;2023-05-24T08:20:17;34.05;;;7.35;;
72882;SDS011;61017;37.812;-122.286;2023-05-24T08:21:49;29.60;;;7.70;;
72882;SDS011;61017;37.812;-122.286;2023-05-24T08:23:20;33.45;;;7.70;;
72882;SDS011;61017;37.812;-122.286;2023-05-24T08:24:52;28.75;;;7.20;;
72882;SDS011;61017;37.812;-122.286;2023-05-24T08:26:24;32.97;;;7.57;;
72882;SDS011;61017;37.812;-122.286;2023-05-24T08:27:55;32.92;;;8.02;;
72882;SDS011;61017;37.812;-122.286;2023-05-24T08:29:27;32.80;;;7.85;;
72882;SDS011;61017;37.812;-122.286;2023-05-24T08:30:58;35.38;;;8.00;;
72882;SDS011;61017;37.812;-122.286;2023-05-24T08:32:30;27.08;;;7.97;;
72882;SDS011;61017;37.812;-122.286;2023-05-24T08:34:02;29.15;;;7.50;;
72882;SDS011;61017;37.812;-122.286;2023-05-24T08:35:33;34.97;;;8.27;;
72882;SDS011;61017;37.812;-122.286;2023-05-24T08:37:08;31.05;;;6.90;;
72882;SDS011;61017;37.812;-122.286;2023-05-24T08:38:40;27.17;;;7.05;;
72882;SDS011;61017;37.812;-122.286;2023-05-24T08:40:12;27.48;;;7.35;;
72882;SDS011;61017;37.812;-122.286;2023-05-24T08:41:43;29.40;;;7.50;;
72882;SDS011;61017;37.812;-122.286;2023-05-24T08:43:16;36.22;;;8.32;;
72882;SDS011;61017;37.812;-122.286;2023-05-24T08:44:52;36.28;;;8.13;;
72882;SDS011;61017;37.812;-122.286;2023-05-24T08:46:28;28.25;;;7.60;;
72882;SDS011;61017;37.812;-122.286;2023-05-24T08:48:01;28.17;;;7.60;;
72882;SDS011;61017;37.812;-122.286;2023-05-24T08:49:34;34.80;;;7.70;;
72882;SDS011;61017;37.812;-122.286;2023-05-24T08:51:25;35.22;;;8.45;;
72882;SDS011;61017;37.812;-122.286;2023-05-24T08:52:57;35.20;;;8.18;;
72882;SDS011;61017;37.812;-122.286;2023-05-24T08:54:29;31.33;;;7.88;;
72882;SDS011;61017;37.812;-122.286;2023-05-24T08:56:01;29.63;;;7.57;;
72882;SDS011;61017;37.812;-122.286;2023-05-24T08:57:34;28.52;;;7.70;;
72882;SDS011;61017;37.812;-122.286;2023-05-24T08:59:07;33.95;;;7.82;;
72882;SDS011;61017;37.812;-122.286;2023-05-24T09:00:39;29.80;;;7.40;;
72882;SDS011;61017;37.812;-122.286;2023-05-24T09:02:12;35.53;;;7.70;;